sensor_id;sensor_type;location;lat;lon;timestamp;pressure;altitude;pressure_sealevel;temperature;humidity
14818;BME280;7500;57.698;11.986;2023-03-04T00:02:22;101356.06;;;6.85;100.00
14818;BME280;7500;57.698;11.986;2023-03-04T00:04:49;101361.38;;;6.82;100.00
14818;BME280;7500;57.698;11.986;2023-03-04T00:07:16;101366.75;;;6.79;100.00
14818;BME280;7500;57.698;11.986;2023-03-04T00:09:44;101360.63;;;6.78;100.00
14818;BME280;7500;57.698;11.986;2023-03-04T00:12:11;101357.09;;;6.79;100.00
14818;BME280;7500;57.698;11.986;2023-03-04T00:14:38;101358.06;;;6.77;100.00
14818;BME280;7500;57.698;11.986;2023-03-04T00:17:05;101365.03;;;6.78;100.00
14818;BME280;7500;57.698;11.986;2023-03-04T00:19:34;101357.31;;;6.72;100.00
14818;BME280;7500;57.698;11.986;2023-03-04T00:22:01;101367.66;;;6.76;100.00
14818;BME280;7500;57.698;11.986;2023-03-04T00:24:28;101375.63;;;6.73;100.00
14818;BME280;7500;57.698;11.986;2023-03-04T00:26:55;101379.19;;;6.71;100.00
14818;BME280;7500;57.698;11.986;2023-03-04T00:29:22;101301.75;;;6.23;100.00
14818;BME280;7500;57.698;11.986;2023-03-04T00:31:49;101381.06;;;6.66;100.00
14818;BME280;7500;57.698;11.986;2023-03-04T00:34:16;101377.47;;;6.70;100.00
14818;BME280;7500;57.698;11.986;2023-03-04T00:36:44;101379.19;;;6.71;100.00
14818;BME280;7500;57.698;11.986;2023-03-04T00:39:11;101385.41;;;6.67;100.00
14818;BME280;7500;57.698;11.986;2023-03-04T00:41:38;101374.38;;;6.55;100.00
14818;BME280;7500;57.698;11.986;2023-03-04T00:44:05;101407.38;;;6.63;100.00
14818;BME280;7500;57.698;11.986;2023-03-04T00:46:32;101402.97;;;6.64;100.00
14818;BME280;7500;57.698;11.986;2023-03-04T00:48:59;101398.63;;;6.64;100.00
14818;BME280;7500;57.698;11.986;2023-03-04T00:51:26;101408.34;;;6.59;100.00
14818;BME280;7500;57.698;11.986;2023-03-04T00:53:55;101416.28;;;6.56;100.00
14818;BME280;7500;57.698;11.986;2023-03-04T00:56:22;101404.97;;;6.54;100.00
14818;BME280;7500;57.698;11.986;2023-03-04T00:58:48;101413.72;;;6.55;100.00
14818;BME280;7500;57.698;11.986;2023-03-04T01:01:15;101411.25;;;6.47;100.00
14818;BME280;7500;57.698;11.986;2023-03-04T01:03:42;101417.38;;;6.48;100.00
14818;BME280;7500;57.698;11.986;2023-03-04T01:06:09;101416.50;;;6.49;100.00
14818;BME280;7500;57.698;11.986;2023-03-04T01:08:36;101424.44;;;6.46;100.00
14818;BME280;7500;57.698;11.986;2023-03-04T01:11:05;101433.13;;;6.46;100.00
14818;BME280;7500;57.698;11.986;2023-03-04T01:13:32;101427.09;;;6.44;100.00
14818;BME280;7500;57.698;11.986;2023-03-04T01:15:59;101435.00;;;6.43;100.00
14818;BME280;7500;57.698;11.986;2023-03-04T01:18:27;101439.47;;;6.39;100.00
14818;BME280;7500;57.698;11.986;2023-03-04T01:20:54;101435.94;;;6.40;100.00
14818;BME280;7500;57.698;11.986;2023-03-04T01:23:21;101436.84;;;6.38;100.00
14818;BME280;7500;57.698;11.986;2023-03-04T01:25:48;101432.63;;;6.32;100.00
14818;BME280;7500;57.698;11.986;2023-03-04T01:28:16;101430.91;;;6.30;100.00
14818;BME280;7500;57.698;11.986;2023-03-04T01:30:43;101430.91;;;6.31;100.00
14818;BME280;7500;57.698;11.986;2023-03-04T01:33:10;101430.00;;;6.31;100.00
14818;BME280;7500;57.698;11.986;2023-03-04T01:35:37;101405.91;;;6.17;100.00
14818;BME280;7500;57.698;11.986;2023-03-04T01:38:04;101439.78;;;6.24;100.00
14818;BME280;7500;57.698;11.986;2023-03-04T01:40:31;101437.28;;;6.20;100.00
14818;BME280;7500;57.698;11.986;2023-03-04T01:42:58;101426.72;;;6.23;100.00
14818;BME280;7500;57.698;11.986;2023-03-04T01:45:27;101431.00;;;6.27;100.00
14818;BME280;7500;57.698;11.986;2023-03-04T01:47:54;101435.44;;;6.23;100.00
14818;BME280;7500;57.698;11.986;2023-03-04T01:50:26;101438.19;;;6.17;100.00
14818;BME280;7500;57.698;11.986;2023-03-04T01:52:54;101444.22;;;6.22;100.00
14818;BME280;7500;57.698;11.986;2023-03-04T01:55:22;101445.03;;;6.24;100.00
14818;BME280;7500;57.698;11.986;2023-03-04T01:57:50;101445.16;;;6.20;100.00
14818;BME280;7500;57.698;11.986;2023-03-04T02:00:21;101453.94;;;6.17;100.00
14818;BME280;7500;57.698;11.986;2023-03-04T02:02:52;101455.00;;;6.10;100.00
14818;BME280;7500;57.698;11.986;2023-03-04T02:05:20;101462.91;;;6.07;100.00
14818;BME280;7500;57.698;11.986;2023-03-04T02:07:48;101461.91;;;6.13;100.00
14818;BME280;7500;57.698;11.986;2023-03-04T02:10:15;101462.75;;;6.15;100.00
14818;BME280;7500;57.698;11.986;2023-03-04T02:12:43;101464.66;;;6.07;100.00
14818;BME280;7500;57.698;11.986;2023-03-04T02:15:10;101458.56;;;6.06;100.00
14818;BME280;7500;57.698;11.986;2023-03-04T02:17:38;101462.28;;;5.95;100.00
14818;BME280;7500;57.698;11.986;2023-03-04T02:20:14;101465.91;;;5.89;100.00
14818;BME280;7500;57.698;11.986;2023-03-04T02:22:51;101464.28;;;5.84;100.00
14818;BME280;7500;57.698;11.986;2023-03-04T02:25:23;101472.09;;;5.85;100.00
14818;BME280;7500;57.698;11.986;2023-03-04T02:27:52;101478.25;;;5.84;100.00
14818;BME280;7500;57.698;11.986;2023-03-04T02:30:21;101485.06;;;5.93;100.00
14818;BME280;7500;57.698;11.986;2023-03-04T02:32:50;101475.56;;;5.87;100.00
14818;BME280;7500;57.698;11.986;2023-03-04T02:35:18;101468.53;;;5.89;100.00
14818;BME280;7500;57.698;11.986;2023-03-04T02:37:45;101469.38;;;5.91;100.00
14818;BME280;7500;57.698;11.986;2023-03-04T02:40:15;101472.03;;;5.88;100.00
14818;BME280;7500;57.698;11.986;2023-03-04T02:42:43;101466.78;;;5.90;100.00
14818;BME280;7500;57.698;11.986;2023-03-04T02:45:34;101447.81;;;5.79;100.00
14818;BME280;7500;57.698;11.986;2023-03-04T02:48:01;101479.59;;;6.03;100.00
14818;BME280;7500;57.698;11.986;2023-03-04T02:50:30;101484.78;;;6.06;100.00
14818;BME280;7500;57.698;11.986;2023-03-04T02:52:59;101483.81;;;6.10;100.00
14818;BME280;7500;57.698;11.986;2023-03-04T02:55:26;101487.25;;;6.12;100.00
14818;BME280;7500;57.698;11.986;2023-03-04T02:57:54;101492.59;;;6.09;100.00
14818;BME280;7500;57.698;11.986;2023-03-04T03:00:21;101490.78;;;6.11;100.00
14818;BME280;7500;57.698;11.986;2023-03-04T03:02:49;101492.72;;;6.03;100.00
14818;BME280;7500;57.698;11.986;2023-03-04T03:05:16;101490.03;;;6.05;100.00
14818;BME280;7500;57.698;11.986;2023-03-04T03:07:43;101488.41;;;5.99;100.00
14818;BME280;7500;57.698;11.986;2023-03-04T03:10:11;101491.94;;;5.98;100.00
14818;BME280;7500;57.698;11.986;2023-03-04T03:12:38;101501.53;;;5.99;100.00
14818;BME280;7500;57.698;11.986;2023-03-04T03:15:06;101505.03;;;5.98;100.00
14818;BME280;7500;57.698;11.986;2023-03-04T03:17:33;101502.47;;;5.95;100.00
14818;BME280;7500;57.698;11.986;2023-03-04T03:20:02;101480.22;;;5.72;100.00
14818;BME280;7500;57.698;11.986;2023-03-04T03:22:29;101512.38;;;5.81;100.00
14818;BME280;7500;57.698;11.986;2023-03-04T03:24:55;101516.75;;;5.81;100.00
14818;BME280;7500;57.698;11.986;2023-03-04T03:27:22;101516.84;;;5.75;100.00
14818;BME280;7500;57.698;11.986;2023-03-04T03:29:49;101522.19;;;5.70;100.00
14818;BME280;7500;57.698;11.986;2023-03-04T03:32:16;101528.47;;;5.60;100.00
14818;BME280;7500;57.698;11.986;2023-03-04T03:34:43;101526.81;;;5.56;100.00
14818;BME280;7500;57.698;11.986;2023-03-04T03:37:12;101518.16;;;5.52;100.00
14818;BME280;7500;57.698;11.986;2023-03-04T03:39:39;101529.63;;;5.46;100.00
14818;BME280;7500;57.698;11.986;2023-03-04T03:42:06;101533.19;;;5.44;100.00
14818;BME280;7500;57.698;11.986;2023-03-04T03:44:33;101538.56;;;5.33;100.00
14818;BME280;7500;57.698;11.986;2023-03-04T03:47:00;101541.13;;;5.36;100.00
14818;BME280;7500;57.698;11.986;2023-03-04T03:49:27;101538.63;;;5.32;100.00
14818;BME280;7500;57.698;11.986;2023-03-04T03:51:54;101538.66;;;5.29;100.00
14818;BME280;7500;57.698;11.986;2023-03-04T03:54:23;101546.56;;;5.26;100.00
14818;BME280;7500;57.698;11.986;2023-03-04T03:56:49;101548.50;;;5.16;100.00
14818;BME280;7500;57.698;11.986;2023-03-04T03:59:16;101550.22;;;5.16;100.00
14818;BME280;7500;57.698;11.986;2023-03-04T04:01:43;101551.34;;;5.03;100.00
14818;BME280;7500;57.698;11.986;2023-03-04T04:04:10;101555.69;;;5.04;100.00
14818;BME280;7500;57.698;11.986;2023-03-04T04:06:37;101551.28;;;5.06;100.00
14818;BME280;7500;57.698;11.986;2023-03-04T04:09:04;101558.31;;;5.02;100.00
14818;BME280;7500;57.698;11.986;2023-03-04T04:11:32;101549.66;;;4.97;100.00
14818;BME280;7500;57.698;11.986;2023-03-04T04:13:59;101553.16;;;4.96;100.00
14818;BME280;7500;57.698;11.986;2023-03-04T04:16:26;101549.81;;;4.88;100.00
14818;BME280;7500;57.698;11.986;2023-03-04T04:18:53;101552.41;;;4.91;100.00
14818;BME280;7500;57.698;11.986;2023-03-04T04:21:20;101556.66;;;4.97;100.00
14818;BME280;7500;57.698;11.986;2023-03-04T04:23:47;101561.91;;;4.95;100.00
14818;BME280;7500;57.698;11.986;2023-03-04T04:26:14;101562.78;;;4.96;100.00
14818;BME280;7500;57.698;11.986;2023-03-04T04:28:42;101562.78;;;4.96;100.00
14818;BME280;7500;57.698;11.986;2023-03-04T04:31:09;101567.16;;;4.94;100.00
14818;BME280;7500;57.698;11.986;2023-03-04T04:33:36;101566.28;;;4.95;100.00
14818;BME280;7500;57.698;11.986;2023-03-04T04:36:04;101565.41;;;4.96;100.00
14818;BME280;7500;57.698;11.986;2023-03-04T04:38:31;101566.28;;;4.93;100.00
14818;BME280;7500;57.698;11.986;2023-03-04T04:40:59;101558.47;;;4.92;100.00
14818;BME280;7500;57.698;11.986;2023-03-04T04:43:25;101553.25;;;4.92;100.00
14818;BME280;7500;57.698;11.986;2023-03-04T04:45:54;101561.84;;;4.98;100.00
14818;BME280;7500;57.698;11.986;2023-03-04T04:48:21;101566.28;;;4.95;100.00
14818;BME280;7500;57.698;11.986;2023-03-04T04:50:53;101559.41;;;4.88;100.00
14818;BME280;7500;57.698;11.986;2023-03-04T04:53:21;101560.28;;;4.88;100.00
14818;BME280;7500;57.698;11.986;2023-03-04T04:55:48;101562.03;;;4.89;100.00
14818;BME280;7500;57.698;11.986;2023-03-04T04:58:15;101569.88;;;4.89;100.00
14818;BME280;7500;57.698;11.986;2023-03-04T05:00:42;101575.09;;;4.88;100.00
14818;BME280;7500;57.698;11.986;2023-03-04T05:03:10;101591.66;;;4.90;100.00
14818;BME280;7500;57.698;11.986;2023-03-04T05:05:37;101595.19;;;4.87;100.00
14818;BME280;7500;57.698;11.986;2023-03-04T05:08:04;101592.69;;;4.77;100.00
14818;BME280;7500;57.698;11.986;2023-03-04T05:10:31;101589.19;;;4.78;100.00
14818;BME280;7500;57.698;11.986;2023-03-04T05:12:58;101593.66;;;4.73;100.00
14818;BME280;7500;57.698;11.986;2023-03-04T05:15:25;101602.31;;;4.76;100.00
14818;BME280;7500;57.698;11.986;2023-03-04T05:17:52;101606.78;;;4.70;100.00
14818;BME280;7500;57.698;11.986;2023-03-04T05:20:20;101609.44;;;4.65;100.00
14818;BME280;7500;57.698;11.986;2023-03-04T05:22:48;101612.97;;;4.63;100.00
14818;BME280;7500;57.698;11.986;2023-03-04T05:25:15;101620.69;;;4.72;100.00
14818;BME280;7500;57.698;11.986;2023-03-04T05:27:42;101623.25;;;4.76;100.00
14818;BME280;7500;57.698;11.986;2023-03-04T05:30:10;101632.75;;;4.82;100.00
14818;BME280;7500;57.698;11.986;2023-03-04T05:32:37;101632.78;;;4.79;100.00
14818;BME280;7500;57.698;11.986;2023-03-04T05:35:05;101636.41;;;4.72;100.00
14818;BME280;7500;57.698;11.986;2023-03-04T05:37:33;101647.78;;;4.66;100.00
14818;BME280;7500;57.698;11.986;2023-03-04T05:40:01;101652.19;;;4.63;100.00
14818;BME280;7500;57.698;11.986;2023-03-04T05:42:28;101650.59;;;4.50;100.00
14818;BME280;7500;57.698;11.986;2023-03-04T05:44:55;101651.53;;;4.47;100.00
14818;BME280;7500;57.698;11.986;2023-03-04T05:47:22;101664.59;;;4.46;100.00
14818;BME280;7500;57.698;11.986;2023-03-04T05:49:49;101664.50;;;4.55;100.00
14818;BME280;7500;57.698;11.986;2023-03-04T05:52:16;101667.19;;;4.50;100.00
14818;BME280;7500;57.698;11.986;2023-03-04T05:54:44;101666.34;;;4.47;100.00
14818;BME280;7500;57.698;11.986;2023-03-04T05:57:11;101665.50;;;4.46;100.00
14818;BME280;7500;57.698;11.986;2023-03-04T05:59:38;101669.72;;;4.55;100.00
14818;BME280;7500;57.698;11.986;2023-03-04T06:02:05;101668.00;;;4.55;100.00
14818;BME280;7500;57.698;11.986;2023-03-04T06:04:32;101676.69;;;4.56;100.00
14818;BME280;7500;57.698;11.986;2023-03-04T06:06:59;101674.16;;;4.51;100.00
14818;BME280;7500;57.698;11.986;2023-03-04T06:09:26;101674.16;;;4.50;100.00
14818;BME280;7500;57.698;11.986;2023-03-04T06:11:55;101675.91;;;4.48;100.00
14818;BME280;7500;57.698;11.986;2023-03-04T06:14:21;101680.25;;;4.49;100.00
14818;BME280;7500;57.698;11.986;2023-03-04T06:16:48;101702.94;;;4.48;100.00
14818;BME280;7500;57.698;11.986;2023-03-04T06:19:15;101682.88;;;4.49;100.00
14818;BME280;7500;57.698;11.986;2023-03-04T06:21:42;101688.09;;;4.49;100.00
14818;BME280;7500;57.698;11.986;2023-03-04T06:24:09;101694.22;;;4.48;100.00
14818;BME280;7500;57.698;11.986;2023-03-04T06:26:36;101674.41;;;4.29;100.00
14818;BME280;7500;57.698;11.986;2023-03-04T06:29:05;101707.28;;;4.49;100.00
14818;BME280;7500;57.698;11.986;2023-03-04T06:31:32;101703.78;;;4.49;100.00
14818;BME280;7500;57.698;11.986;2023-03-04T06:33:59;101707.31;;;4.45;100.00
14818;BME280;7500;57.698;11.986;2023-03-04T06:36:26;101716.06;;;4.43;100.00
14818;BME280;7500;57.698;11.986;2023-03-04T06:38:53;101715.16;;;4.45;100.00
14818;BME280;7500;57.698;11.986;2023-03-04T06:41:20;101713.44;;;4.44;100.00
14818;BME280;7500;57.698;11.986;2023-03-04T06:43:46;101723.88;;;4.44;100.00
14818;BME280;7500;57.698;11.986;2023-03-04T06:46:15;101724.78;;;4.42;100.00
14818;BME280;7500;57.698;11.986;2023-03-04T06:48:42;101726.63;;;4.34;100.00
14818;BME280;7500;57.698;11.986;2023-03-04T06:51:10;101734.50;;;4.31;100.00
14818;BME280;7500;57.698;11.986;2023-03-04T06:53:37;101731.84;;;4.34;100.00
14818;BME280;7500;57.698;11.986;2023-03-04T06:56:05;101738.00;;;4.31;100.00
14818;BME280;7500;57.698;11.986;2023-03-04T06:58:33;101747.53;;;4.34;100.00
14818;BME280;7500;57.698;11.986;2023-03-04T07:01:11;101744.06;;;4.33;100.00
14818;BME280;7500;57.698;11.986;2023-03-04T07:03:41;101741.47;;;4.30;100.00
14818;BME280;7500;57.698;11.986;2023-03-04T07:06:09;101743.19;;;4.34;100.00
14818;BME280;7500;57.698;11.986;2023-03-04T07:08:36;101754.47;;;4.39;100.00
14818;BME280;7500;57.698;11.986;2023-03-04T07:11:04;101757.03;;;4.42;100.00
14818;BME280;7500;57.698;11.986;2023-03-04T07:13:31;101753.53;;;4.43;100.00
14818;BME280;7500;57.698;11.986;2023-03-04T07:16:00;101760.50;;;4.44;100.00
14818;BME280;7500;57.698;11.986;2023-03-04T07:18:27;101766.59;;;4.44;100.00
14818;BME280;7500;57.698;11.986;2023-03-04T07:20:55;101761.47;;;4.34;98.00
14818;BME280;7500;57.698;11.986;2023-03-04T07:23:22;101764.97;;;4.32;100.00
14818;BME280;7500;57.698;11.986;2023-03-04T07:25:49;101765.84;;;4.31;99.51
14818;BME280;7500;57.698;11.986;2023-03-04T07:28:16;101784.25;;;4.22;94.90
14818;BME280;7500;57.698;11.986;2023-03-04T07:30:43;101799.09;;;4.18;95.93
14818;BME280;7500;57.698;11.986;2023-03-04T07:33:12;101752.41;;;3.81;90.93
14818;BME280;7500;57.698;11.986;2023-03-04T07:35:39;101781.81;;;4.05;90.80
14818;BME280;7500;57.698;11.986;2023-03-04T07:38:07;101782.69;;;4.04;89.17
14818;BME280;7500;57.698;11.986;2023-03-04T07:40:35;101787.88;;;4.07;88.38
14818;BME280;7500;57.698;11.986;2023-03-04T07:43:02;101796.53;;;4.09;85.00
14818;BME280;7500;57.698;11.986;2023-03-04T07:45:29;101792.09;;;4.20;86.59
14818;BME280;7500;57.698;11.986;2023-03-04T07:47:57;101791.25;;;4.18;84.47
14818;BME280;7500;57.698;11.986;2023-03-04T07:50:24;101783.44;;;4.15;82.22
14818;BME280;7500;57.698;11.986;2023-03-04T07:52:51;101803.50;;;4.12;78.11
14818;BME280;7500;57.698;11.986;2023-03-04T07:55:19;101800.88;;;4.13;76.15
14818;BME280;7500;57.698;11.986;2023-03-04T07:57:46;101797.47;;;4.05;72.49
14818;BME280;7500;57.698;11.986;2023-03-04T08:00:15;101785.13;;;4.24;75.14
14818;BME280;7500;57.698;11.986;2023-03-04T08:02:42;101786.88;;;4.20;75.08
14818;BME280;7500;57.698;11.986;2023-03-04T08:05:09;101792.16;;;4.11;68.36
14818;BME280;7500;57.698;11.986;2023-03-04T08:07:36;101796.44;;;4.23;69.70
14818;BME280;7500;57.698;11.986;2023-03-04T08:10:05;101806.81;;;4.29;70.50
14818;BME280;7500;57.698;11.986;2023-03-04T08:12:34;101815.66;;;4.16;65.78
14818;BME280;7500;57.698;11.986;2023-03-04T08:15:01;101823.34;;;4.35;67.09
14818;BME280;7500;57.698;11.986;2023-03-04T08:17:28;101823.47;;;4.20;63.16
14818;BME280;7500;57.698;11.986;2023-03-04T08:19:55;101809.41;;;4.33;66.79
14818;BME280;7500;57.698;11.986;2023-03-04T08:22:23;101825.78;;;4.54;66.91
14818;BME280;7500;57.698;11.986;2023-03-04T08:24:49;101828.28;;;4.63;67.45
14818;BME280;7500;57.698;11.986;2023-03-04T08:27:16;101832.75;;;4.55;66.04
14818;BME280;7500;57.698;11.986;2023-03-04T08:29:45;101831.94;;;4.47;67.08
14818;BME280;7500;57.698;11.986;2023-03-04T08:32:12;101829.38;;;4.42;66.17
14818;BME280;7500;57.698;11.986;2023-03-04T08:34:39;101837.25;;;4.40;66.02
14818;BME280;7500;57.698;11.986;2023-03-04T08:37:06;101822.50;;;4.29;66.09
14818;BME280;7500;57.698;11.986;2023-03-04T08:39:33;101834.66;;;4.37;64.83
14818;BME280;7500;57.698;11.986;2023-03-04T08:42:01;101842.41;;;4.43;67.30
14818;BME280;7500;57.698;11.986;2023-03-04T08:44:28;101834.50;;;4.52;68.54
14818;BME280;7500;57.698;11.986;2023-03-04T08:46:56;101837.03;;;4.61;69.85
14818;BME280;7500;57.698;11.986;2023-03-04T08:49:23;101831.78;;;4.61;69.27
14818;BME280;7500;57.698;11.986;2023-03-04T08:51:51;101837.03;;;4.61;68.97
14818;BME280;7500;57.698;11.986;2023-03-04T08:54:18;101836.13;;;4.65;68.35
14818;BME280;7500;57.698;11.986;2023-03-04T08:56:45;101826.53;;;4.64;67.62
14818;BME280;7500;57.698;11.986;2023-03-04T08:59:12;101833.47;;;4.66;68.29
14818;BME280;7500;57.698;11.986;2023-03-04T09:01:39;101834.44;;;4.58;66.79
14818;BME280;7500;57.698;11.986;2023-03-04T09:04:07;101831.78;;;4.61;67.23
14818;BME280;7500;57.698;11.986;2023-03-04T09:06:34;101751.16;;;4.19;67.48
14818;BME280;7500;57.698;11.986;2023-03-04T09:09:01;101836.97;;;4.67;67.40
14818;BME280;7500;57.698;11.986;2023-03-04T09:11:29;101837.84;;;4.66;67.13
14818;BME280;7500;57.698;11.986;2023-03-04T09:13:56;101835.09;;;4.78;67.50
14818;BME280;7500;57.698;11.986;2023-03-04T09:16:23;101843.03;;;4.70;64.70
14818;BME280;7500;57.698;11.986;2023-03-04T09:18:50;101851.69;;;4.75;65.75
14818;BME280;7500;57.698;11.986;2023-03-04T09:21:18;101857.84;;;4.73;63.02
14818;BME280;7500;57.698;11.986;2023-03-04T09:23:45;101839.47;;;4.77;65.18
14818;BME280;7500;57.698;11.986;2023-03-04T09:26:14;101830.75;;;4.78;63.26
14818;BME280;7500;57.698;11.986;2023-03-04T09:28:41;101842.03;;;4.82;64.14
14818;BME280;7500;57.698;11.986;2023-03-04T09:31:12;101848.25;;;4.70;61.06
14818;BME280;7500;57.698;11.986;2023-03-04T09:33:39;101839.50;;;4.74;62.53
14818;BME280;7500;57.698;11.986;2023-03-04T09:36:08;101834.97;;;4.90;63.61
14818;BME280;7500;57.698;11.986;2023-03-04T09:38:38;101829.75;;;4.91;63.30
14818;BME280;7500;57.698;11.986;2023-03-04T09:41:07;101829.84;;;4.79;60.43
14818;BME280;7500;57.698;11.986;2023-03-04T09:43:34;101828.88;;;4.88;62.56
14818;BME280;7500;57.698;11.986;2023-03-04T09:46:06;101830.59;;;4.92;62.81
14818;BME280;7500;57.698;11.986;2023-03-04T09:48:39;101818.47;;;4.82;59.79
14818;BME280;7500;57.698;11.986;2023-03-04T09:51:18;101826.38;;;4.76;57.51
14818;BME280;7500;57.698;11.986;2023-03-04T09:53:58;101814.91;;;4.89;60.72
14818;BME280;7500;57.698;11.986;2023-03-04T09:56:29;101684.09;;;4.18;59.55
14818;BME280;7500;57.698;11.986;2023-03-04T09:59:04;101821.84;;;4.93;58.23
14818;BME280;7500;57.698;11.986;2023-03-04T10:01:41;101813.94;;;4.97;59.29
14818;BME280;7500;57.698;11.986;2023-03-04T10:04:13;101808.72;;;4.99;59.68
14818;BME280;7500;57.698;11.986;2023-03-04T10:06:43;101817.38;;;5.04;59.01
14818;BME280;7500;57.698;11.986;2023-03-04T10:09:22;101813.97;;;4.96;58.04
14818;BME280;7500;57.698;11.986;2023-03-04T10:11:57;101822.59;;;5.04;57.99
14818;BME280;7500;57.698;11.986;2023-03-04T10:14:38;101817.34;;;5.07;58.04
14818;BME280;7500;57.698;11.986;2023-03-04T10:17:12;101811.25;;;5.03;57.14
14818;BME280;7500;57.698;11.986;2023-03-04T10:19:53;101818.97;;;5.14;59.72
14818;BME280;7500;57.698;11.986;2023-03-04T10:22:27;101815.47;;;5.15;57.70
14818;BME280;7500;57.698;11.986;2023-03-04T10:25:06;101819.84;;;5.14;58.78
14818;BME280;7500;57.698;11.986;2023-03-04T10:27:33;101810.28;;;5.12;60.07
14818;BME280;7500;57.698;11.986;2023-03-04T10:30:00;101825.06;;;5.17;59.40
14818;BME280;7500;57.698;11.986;2023-03-04T10:32:27;101823.44;;;5.09;57.92
14818;BME280;7500;57.698;11.986;2023-03-04T10:34:54;101820.66;;;5.19;59.94
14818;BME280;7500;57.698;11.986;2023-03-04T10:37:21;101822.44;;;5.17;57.91
14818;BME280;7500;57.698;11.986;2023-03-04T10:39:49;101820.66;;;5.18;57.99
14818;BME280;7500;57.698;11.986;2023-03-04T10:42:27;101811.84;;;5.25;58.24
14818;BME280;7500;57.698;11.986;2023-03-04T10:45:01;101825.84;;;5.24;56.88
14818;BME280;7500;57.698;11.986;2023-03-04T10:47:30;101809.28;;;5.22;58.80
14818;BME280;7500;57.698;11.986;2023-03-04T10:49:59;101802.16;;;5.33;59.03
14818;BME280;7500;57.698;11.986;2023-03-04T10:52:29;101811.72;;;5.37;57.04
14818;BME280;7500;57.698;11.986;2023-03-04T10:54:57;101806.41;;;5.41;57.82
14818;BME280;7500;57.698;11.986;2023-03-04T10:57:33;101808.97;;;5.44;57.25
14818;BME280;7500;57.698;11.986;2023-03-04T11:00:01;101806.41;;;5.41;56.95
14818;BME280;7500;57.698;11.986;2023-03-04T11:02:29;101805.44;;;5.47;58.66
14818;BME280;7500;57.698;11.986;2023-03-04T11:05:05;101797.50;;;5.53;59.21
14818;BME280;7500;57.698;11.986;2023-03-04T11:07:38;101798.47;;;5.47;59.00
14818;BME280;7500;57.698;11.986;2023-03-04T11:10:10;101799.31;;;5.48;60.08
14818;BME280;7500;57.698;11.986;2023-03-04T11:12:47;101799.19;;;5.56;59.58
14818;BME280;7500;57.698;11.986;2023-03-04T11:15:19;101800.06;;;5.55;59.38
14818;BME280;7500;57.698;11.986;2023-03-04T11:17:51;101784.34;;;5.57;60.77
14818;BME280;7500;57.698;11.986;2023-03-04T11:20:27;101787.75;;;5.62;59.87
14818;BME280;7500;57.698;11.986;2023-03-04T11:22:56;101786.91;;;5.61;60.29
14818;BME280;7500;57.698;11.986;2023-03-04T11:25:27;101793.09;;;5.54;59.47
14818;BME280;7500;57.698;11.986;2023-03-04T11:27:59;101787.03;;;5.54;56.96
14818;BME280;7500;57.698;11.986;2023-03-04T11:30:38;101783.72;;;5.40;55.53
14818;BME280;7500;57.698;11.986;2023-03-04T11:33:21;101788.97;;;5.40;55.23
14818;BME280;7500;57.698;11.986;2023-03-04T11:36:03;101778.41;;;5.45;56.08
14818;BME280;7500;57.698;11.986;2023-03-04T11:38:38;101779.13;;;5.57;58.98
14818;BME280;7500;57.698;11.986;2023-03-04T11:41:09;101776.34;;;5.67;58.11
14818;BME280;7500;57.698;11.986;2023-03-04T11:43:41;101776.34;;;5.67;56.72
14818;BME280;7500;57.698;11.986;2023-03-04T11:46:38;101786.13;;;5.53;53.79
14818;BME280;7500;57.698;11.986;2023-03-04T11:52:27;101771.44;;;5.45;54.18
14818;BME280;7500;57.698;11.986;2023-03-04T11:55:17;101778.25;;;5.56;55.43
14818;BME280;7500;57.698;11.986;2023-03-04T11:57:55;101772.03;;;5.62;55.09
14818;BME280;7500;57.698;11.986;2023-03-04T12:00:34;101755.47;;;5.61;55.35
14818;BME280;7500;57.698;11.986;2023-03-04T12:03:35;101782.25;;;5.81;56.68
14818;BME280;7500;57.698;11.986;2023-03-04T12:06:11;101767.38;;;5.83;57.21
14818;BME280;7500;57.698;11.986;2023-03-04T12:09:02;101771.66;;;5.87;56.89
14818;BME280;7500;57.698;11.986;2023-03-04T12:11:40;101759.47;;;5.86;55.36
14818;BME280;7500;57.698;11.986;2023-03-04T12:14:25;101763.94;;;5.78;53.44
14818;BME280;7500;57.698;11.986;2023-03-04T12:17:09;101758.13;;;5.60;50.50
14818;BME280;7500;57.698;11.986;2023-03-04T12:19:51;101745.03;;;5.58;52.13
14818;BME280;7500;57.698;11.986;2023-03-04T12:22:35;101744.94;;;5.64;52.31
14818;BME280;7500;57.698;11.986;2023-03-04T12:28:29;101728.25;;;5.70;54.46
14818;BME280;7500;57.698;11.986;2023-03-04T12:31:19;101731.56;;;5.84;56.71
14818;BME280;7500;57.698;11.986;2023-03-04T12:36:50;101727.81;;;5.97;57.42
14818;BME280;7500;57.698;11.986;2023-03-04T12:39:27;101724.31;;;5.99;56.91
14818;BME280;7500;57.698;11.986;2023-03-04T12:42:03;101719.84;;;6.04;56.40
14818;BME280;7500;57.698;11.986;2023-03-04T12:44:35;101717.94;;;6.12;56.56
14818;BME280;7500;57.698;11.986;2023-03-04T12:47:18;101726.78;;;6.07;54.13
14818;BME280;7500;57.698;11.986;2023-03-04T12:50:09;101713.72;;;6.04;53.87
14818;BME280;7500;57.698;11.986;2023-03-04T12:52:48;101720.00;;;5.95;51.53
14818;BME280;7500;57.698;11.986;2023-03-04T12:55:25;101714.81;;;5.92;51.87
14818;BME280;7500;57.698;11.986;2023-03-04T12:57:56;101709.66;;;5.88;51.89
14818;BME280;7500;57.698;11.986;2023-03-04T13:00:33;101710.31;;;5.99;53.03
14818;BME280;7500;57.698;11.986;2023-03-04T13:03:09;101716.09;;;6.19;55.85
14818;BME280;7500;57.698;11.986;2023-03-04T13:08:49;101709.38;;;6.48;55.36
14818;BME280;7500;57.698;11.986;2023-03-04T13:11:44;101712.44;;;6.69;54.33
14818;BME280;7500;57.698;11.986;2023-03-04T13:14:38;101703.63;;;6.73;52.97
14818;BME280;7500;57.698;11.986;2023-03-04T13:17:39;101693.97;;;6.75;52.41
14818;BME280;7500;57.698;11.986;2023-03-04T13:20:22;101682.56;;;6.78;52.62
14818;BME280;7500;57.698;11.986;2023-03-04T13:22:54;101683.16;;;6.90;55.33